createdAt,value
2019-06-20T00:00:46.191Z,80.40
2019-06-20T00:03:16.681Z,80.60
2019-06-20T00:05:46.169Z,80.80
2019-06-20T00:08:15.515Z,81.30
2019-06-20T00:10:44.952Z,81.40
2019-06-20T00:13:14.245Z,81.90
2019-06-20T00:15:43.556Z,82.00
2019-06-20T00:18:12.866Z,82.30
2019-06-20T00:20:42.222Z,82.70
2019-06-20T00:23:11.584Z,83.80
2019-06-20T00:25:40.876Z,83.20
2019-06-20T00:28:10.176Z,83.30
2019-06-20T00:30:40.829Z,82.80
2019-06-20T00:33:10.128Z,82.50
2019-06-20T00:35:39.428Z,81.20
2019-06-20T00:38:08.787Z,81.10
2019-06-20T00:40:38.095Z,79.60
2019-06-20T00:43:17.122Z,80.00
2019-06-20T00:45:38.392Z,80.10
2019-06-20T00:48:07.689Z,79.20
2019-06-20T00:50:38.033Z,78.70
2019-06-20T00:53:09.272Z,78.10
2019-06-20T00:55:38.649Z,78.30
2019-06-20T00:58:07.957Z,78.90
2019-06-20T01:00:37.328Z,78.90
2019-06-20T01:03:06.731Z,78.80
2019-06-20T01:05:36.146Z,79.10
2019-06-20T01:08:05.500Z,79.40
2019-06-20T01:10:34.835Z,80.10
2019-06-20T01:13:04.239Z,78.90
2019-06-20T01:15:34.552Z,79.20
2019-06-20T01:18:04.054Z,78.20
2019-06-20T01:20:33.386Z,77.30
2019-06-20T01:23:02.756Z,77.30
2019-06-20T01:25:37.850Z,77.10
2019-06-20T01:28:07.472Z,76.90
2019-06-20T01:30:36.856Z,76.70
2019-06-20T01:33:07.143Z,77.10
2019-06-20T01:35:36.528Z,77.00
2019-06-20T01:38:05.879Z,76.30
2019-06-20T01:40:35.217Z,76.30
2019-06-20T01:43:05.656Z,76.00
2019-06-20T01:45:35.244Z,76.30
2019-06-20T01:48:05.512Z,75.90
2019-06-20T01:50:34.816Z,74.50
2019-06-20T01:53:04.257Z,74.60
2019-06-20T01:55:33.621Z,72.80
2019-06-20T01:58:02.918Z,73.20
2019-06-20T02:00:34.834Z,73.30
2019-06-20T02:03:04.308Z,72.10
2019-06-20T02:05:33.595Z,73.10
2019-06-20T02:08:02.920Z,72.40
2019-06-20T02:10:32.215Z,73.30
2019-06-20T02:13:01.508Z,73.50
2019-06-20T02:15:30.787Z,73.10
2019-06-20T02:18:00.081Z,73.40
2019-06-20T02:20:53.503Z,73.10
2019-06-20T02:23:23.531Z,73.40
2019-06-20T02:25:54.844Z,73.00
2019-06-20T02:28:24.289Z,72.90
2019-06-20T02:30:53.584Z,72.90
2019-06-20T02:33:25.892Z,72.50
2019-06-20T02:35:55.254Z,72.80
2019-06-20T02:38:24.555Z,73.30
2019-06-20T02:40:53.837Z,73.40
2019-06-20T02:43:23.614Z,74.00
2019-06-20T02:45:52.904Z,74.50
2019-06-20T02:48:23.267Z,74.90
2019-06-20T02:50:52.571Z,74.30
2019-06-20T02:53:22.061Z,75.00
2019-06-20T02:55:51.363Z,74.30
2019-06-20T02:58:20.652Z,74.80
2019-06-20T03:00:57.815Z,74.70
2019-06-20T03:03:28.358Z,74.60
2019-06-20T03:05:58.191Z,74.80
2019-06-20T03:08:27.782Z,75.80
2019-06-20T03:10:59.169Z,74.60
2019-06-20T03:13:28.587Z,74.40
2019-06-20T03:15:57.873Z,75.70
2019-06-20T03:18:27.173Z,75.30
2019-06-20T03:20:56.530Z,75.40
2019-06-20T03:23:25.853Z,75.90
2019-06-20T03:25:55.195Z,75.10
2019-06-20T03:28:25.535Z,75.40
2019-06-20T03:30:55.836Z,77.40
2019-06-20T03:33:25.181Z,77.20
2019-06-20T03:35:54.539Z,78.60
2019-06-20T03:38:23.838Z,78.00
2019-06-20T03:40:53.152Z,79.10
2019-06-20T03:43:22.523Z,78.30
2019-06-20T03:45:51.807Z,78.70
2019-06-20T03:48:21.106Z,78.40
2019-06-20T03:50:50.409Z,77.50
2019-06-20T03:53:19.706Z,78.50
2019-06-20T03:55:48.993Z,78.20
2019-06-20T03:58:18.341Z,78.30
2019-06-20T04:00:48.661Z,78.30
2019-06-20T04:03:18.024Z,78.70
2019-06-20T04:05:47.376Z,78.70
2019-06-20T04:08:16.870Z,79.00
2019-06-20T04:10:46.183Z,78.50
2019-06-20T04:13:15.489Z,79.10
2019-06-20T04:15:44.812Z,79.00
2019-06-20T04:18:14.121Z,79.70
2019-06-20T04:20:44.400Z,78.90
2019-06-20T04:23:13.772Z,80.10
2019-06-20T04:25:43.066Z,78.50
2019-06-20T04:28:12.366Z,78.20
2019-06-20T04:30:41.662Z,79.20
2019-06-20T04:33:12.134Z,78.10
2019-06-20T04:35:44.573Z,79.20
2019-06-20T04:38:13.867Z,78.10
2019-06-20T04:40:43.172Z,78.10
2019-06-20T04:43:12.470Z,78.50
2019-06-20T04:45:46.156Z,77.80
2019-06-20T04:48:15.434Z,78.50
2019-06-20T04:50:44.731Z,77.70
2019-06-20T04:53:14.099Z,79.40
2019-06-20T04:55:43.415Z,76.70
2019-06-20T04:58:12.708Z,76.70
2019-06-20T05:00:42.009Z,75.70
2019-06-20T05:03:11.372Z,77.20
2019-06-20T05:05:40.752Z,77.50
2019-06-20T05:08:10.035Z,77.40
2019-06-20T05:10:39.404Z,77.40
2019-06-20T05:13:08.728Z,77.60
2019-06-20T05:15:51.374Z,77.80
2019-06-20T05:18:09.952Z,78.60
2019-06-20T05:20:39.261Z,78.40
2019-06-20T05:23:08.604Z,77.70
2019-06-20T05:25:37.901Z,77.60
2019-06-20T05:28:07.194Z,77.90
2019-06-20T05:30:36.495Z,78.20
2019-06-20T05:33:05.780Z,77.90
2019-06-20T05:35:35.081Z,78.00
2019-06-20T05:38:04.487Z,77.90
2019-06-20T05:40:37.091Z,78.70
2019-06-20T05:43:04.908Z,78.60
2019-06-20T05:45:34.270Z,79.50
2019-06-20T05:48:03.830Z,79.50
2019-06-20T05:50:34.179Z,79.50
2019-06-20T05:53:03.459Z,79.70
2019-06-20T05:55:32.963Z,80.70
2019-06-20T05:58:03.411Z,78.80
2019-06-20T06:00:32.776Z,78.50
2019-06-20T06:03:02.143Z,78.70
2019-06-20T06:05:31.440Z,78.00
2019-06-20T06:08:00.733Z,76.80
2019-06-20T06:10:30.046Z,77.90
2019-06-20T06:12:59.331Z,77.30
2019-06-20T06:15:28.622Z,77.20
2019-06-20T06:17:57.915Z,76.20
2019-06-20T06:20:27.200Z,76.80
2019-06-20T06:22:56.497Z,78.30
2019-06-20T06:25:25.808Z,75.70
2019-06-20T06:27:55.132Z,76.10
2019-06-20T06:30:24.555Z,76.50
2019-06-20T06:32:53.901Z,76.00
2019-06-20T06:35:23.299Z,76.50
2019-06-20T06:37:52.652Z,76.30
2019-06-20T06:40:22.499Z,77.20
2019-06-20T06:42:52.781Z,77.50
2019-06-20T06:45:22.629Z,78.40
2019-06-20T06:47:51.968Z,78.50
2019-06-20T06:50:21.782Z,79.60
2019-06-20T06:52:51.087Z,79.70
2019-06-20T06:55:21.594Z,79.20
2019-06-20T06:57:50.964Z,78.00
2019-06-20T07:00:21.296Z,77.70
2019-06-20T07:02:50.621Z,77.40
2019-06-20T07:05:19.976Z,77.60
2019-06-20T07:07:49.284Z,77.10
2019-06-20T07:10:18.730Z,77.00
2019-06-20T07:12:48.037Z,77.30
2019-06-20T07:15:18.168Z,75.10
2019-06-20T07:17:47.546Z,76.00
2019-06-20T07:20:17.121Z,76.20
2019-06-20T07:22:46.612Z,75.90
2019-06-20T07:25:17.168Z,74.60
2019-06-20T07:27:46.597Z,74.90
2019-06-20T07:30:17.235Z,73.60
2019-06-20T07:32:46.581Z,73.80
2019-06-20T07:35:16.370Z,71.60
2019-06-20T07:37:45.800Z,70.30
2019-06-20T07:40:15.647Z,69.70
2019-06-20T07:42:44.974Z,68.50
2019-06-20T07:45:16.037Z,67.30
2019-06-20T07:47:45.506Z,66.70
2019-06-20T07:50:15.154Z,64.00
2019-06-20T07:53:00.855Z,62.30
2019-06-20T07:55:15.530Z,61.40
2019-06-20T07:57:44.834Z,60.10
2019-06-20T08:00:15.304Z,59.10
2019-06-20T08:02:44.675Z,57.20
2019-06-20T08:05:14.655Z,55.80
2019-06-20T08:07:43.961Z,56.70
2019-06-20T08:10:15.646Z,56.10
2019-06-20T08:12:45.020Z,56.60
2019-06-20T08:15:16.099Z,57.40
2019-06-20T08:17:45.540Z,56.80
2019-06-20T08:20:16.242Z,57.80
2019-06-20T08:22:45.556Z,57.50
2019-06-20T08:25:15.380Z,56.80
2019-06-20T08:27:50.841Z,56.90
2019-06-20T08:30:23.015Z,57.30
2019-06-20T08:32:52.416Z,55.80
2019-06-20T08:35:23.395Z,53.70
2019-06-20T08:37:53.351Z,53.00
2019-06-20T08:40:24.177Z,52.90
2019-06-20T08:42:53.565Z,50.60
2019-06-20T08:45:25.311Z,50.50
2019-06-20T08:47:56.465Z,45.30
2019-06-20T08:50:26.827Z,49.00
2019-06-20T08:52:57.638Z,48.60
2019-06-20T08:55:27.194Z,48.50
2019-06-20T08:57:58.202Z,49.10
2019-06-20T09:00:30.716Z,47.40
2019-06-20T09:03:00.562Z,47.60
2019-06-20T09:05:32.281Z,47.90
2019-06-20T09:10:36.893Z,50.90
2019-06-20T09:13:06.604Z,52.30
2019-06-20T09:15:35.972Z,54.00
2019-06-20T09:18:05.922Z,54.20
2019-06-20T09:20:35.854Z,52.30
2019-06-20T09:23:05.805Z,53.10
2019-06-20T09:25:35.738Z,53.20
2019-06-20T09:28:06.325Z,53.70
2019-06-20T09:30:36.906Z,55.70
2019-06-20T09:33:06.867Z,60.10
2019-06-20T09:35:37.216Z,63.20
2019-06-20T09:38:06.666Z,67.30
2019-06-20T09:40:35.983Z,64.50
2019-06-20T09:43:05.573Z,63.40
2019-06-20T09:45:35.667Z,65.70
2019-06-20T09:48:05.181Z,65.20
2019-06-20T09:50:34.566Z,67.00
2019-06-20T09:53:03.946Z,65.20
2019-06-20T09:55:34.534Z,66.20
2019-06-20T09:58:04.137Z,66.80
2019-06-20T10:00:34.221Z,64.90
2019-06-20T10:03:04.243Z,64.30
2019-06-20T10:05:33.986Z,65.00
2019-06-20T10:08:03.434Z,65.40
2019-06-20T10:10:33.366Z,63.40
2019-06-20T10:13:02.729Z,60.80
2019-06-20T10:15:35.230Z,60.30
2019-06-20T10:18:05.618Z,57.80
2019-06-20T10:20:38.780Z,56.30
2019-06-20T10:23:07.480Z,59.10
2019-06-20T10:25:36.946Z,58.50
2019-06-20T10:28:06.523Z,59.20
2019-06-20T10:30:35.818Z,60.90
2019-06-20T10:33:05.211Z,62.10
2019-06-20T10:35:34.593Z,60.90
2019-06-20T10:38:04.128Z,64.60
2019-06-20T10:40:33.429Z,64.00
2019-06-20T10:43:02.764Z,66.60
2019-06-20T10:45:32.501Z,64.40
2019-06-20T10:48:01.858Z,64.00
2019-06-20T10:50:31.410Z,65.40
2019-06-20T10:53:00.757Z,66.40
2019-06-20T10:55:30.245Z,65.60
2019-06-20T10:57:59.557Z,67.40
2019-06-20T11:00:31.853Z,67.10
2019-06-20T11:03:01.690Z,65.40
2019-06-20T11:05:31.124Z,66.50
2019-06-20T11:08:00.511Z,65.30
2019-06-20T11:10:30.455Z,64.80
2019-06-20T11:12:59.763Z,65.00
2019-06-20T11:15:29.617Z,65.50
2019-06-20T11:17:58.964Z,65.10
2019-06-20T11:20:28.470Z,63.80
2019-06-20T11:22:57.779Z,63.70
2019-06-20T11:25:27.155Z,62.20
2019-06-20T11:27:56.458Z,62.30
2019-06-20T11:30:28.896Z,61.40
2019-06-20T11:32:58.275Z,64.20
2019-06-20T11:35:27.625Z,60.50
2019-06-20T11:37:56.969Z,63.40
2019-06-20T11:40:26.358Z,63.60
2019-06-20T11:42:55.675Z,63.20
2019-06-20T11:45:25.245Z,62.30
2019-06-20T11:47:54.582Z,63.30
2019-06-20T11:50:23.982Z,63.70
2019-06-20T11:52:53.294Z,63.90
2019-06-20T11:55:23.109Z,62.90
2019-06-20T11:57:52.417Z,64.50
2019-06-20T12:00:23.548Z,68.60
2019-06-20T12:02:52.930Z,65.90
2019-06-20T12:05:22.317Z,65.30
2019-06-20T12:07:52.825Z,65.70
2019-06-20T12:10:24.400Z,65.40
2019-06-20T12:12:53.762Z,65.20
2019-06-20T12:15:23.520Z,67.50
2019-06-20T12:17:52.905Z,63.20
2019-06-20T12:20:22.461Z,62.30
2019-06-20T12:22:51.841Z,67.50
2019-06-20T12:25:22.192Z,62.30
2019-06-20T12:27:51.601Z,63.70
2019-06-20T12:30:22.224Z,58.80
2019-06-20T12:32:51.520Z,59.20
2019-06-20T12:35:20.941Z,51.60
2019-06-20T12:37:51.951Z,54.90
2019-06-20T12:40:23.551Z,57.50
2019-06-20T12:42:53.812Z,55.40
2019-06-20T12:45:23.112Z,55.10
2019-06-20T12:47:52.489Z,53.50
2019-06-20T12:50:22.135Z,51.60
2019-06-20T12:52:51.525Z,55.50
2019-06-20T12:55:20.898Z,57.10
2019-06-20T12:57:50.199Z,51.40
2019-06-20T13:00:20.538Z,55.50
2019-06-20T13:02:49.934Z,52.40
2019-06-20T13:05:20.277Z,50.10
2019-06-20T13:07:50.368Z,53.00
2019-06-20T13:10:20.343Z,53.70
2019-06-20T13:12:49.673Z,52.30
2019-06-20T13:15:19.961Z,55.90
2019-06-20T13:17:49.351Z,53.00
2019-06-20T13:20:19.124Z,52.40
2019-06-20T13:22:49.610Z,55.60
2019-06-20T13:25:19.128Z,52.40
2019-06-20T13:27:49.944Z,52.90
2019-06-20T13:30:19.748Z,54.90
2019-06-20T13:32:49.124Z,54.20
2019-06-20T13:35:18.816Z,54.70
2019-06-20T13:37:49.730Z,56.20
2019-06-20T13:40:19.605Z,55.10
2019-06-20T13:42:50.265Z,56.00
2019-06-20T13:45:24.901Z,56.80
2019-06-20T13:47:55.046Z,56.00
2019-06-20T13:50:25.277Z,55.70
2019-06-20T13:52:54.698Z,57.30
2019-06-20T13:55:24.162Z,58.40
2019-06-20T13:57:53.623Z,57.70
2019-06-20T14:00:24.248Z,57.80
2019-06-20T14:02:53.647Z,56.50
2019-06-20T14:05:23.133Z,56.30
2019-06-20T14:07:55.541Z,57.30
2019-06-20T14:10:24.628Z,57.30
2019-06-20T14:12:53.942Z,55.90
2019-06-20T14:15:23.670Z,54.90
2019-06-20T14:17:53.821Z,57.30
2019-06-20T14:20:23.241Z,57.40
2019-06-20T14:22:54.691Z,57.20
2019-06-20T14:25:24.606Z,56.50
2019-06-20T14:27:54.254Z,56.90
2019-06-20T14:30:24.318Z,57.60
2019-06-20T14:32:56.240Z,58.50
2019-06-20T14:35:25.668Z,58.70
2019-06-20T14:37:55.554Z,56.50
2019-06-20T14:40:25.051Z,56.60
2019-06-20T14:42:54.459Z,58.60
2019-06-20T14:45:23.939Z,57.80
2019-06-20T14:47:53.366Z,58.60
2019-06-20T14:50:23.227Z,59.00
2019-06-20T14:52:53.986Z,58.70
2019-06-20T14:55:23.739Z,58.50
2019-06-20T14:57:54.733Z,56.60
2019-06-20T15:00:25.773Z,58.30
2019-06-20T15:02:58.451Z,57.80
2019-06-20T15:05:26.308Z,59.20
2019-06-20T15:07:56.022Z,58.40
2019-06-20T15:10:25.496Z,59.60
2019-06-20T15:12:55.863Z,62.00
2019-06-20T15:15:25.518Z,63.90
2019-06-20T15:17:57.461Z,68.10
2019-06-20T15:20:25.883Z,69.20
2019-06-20T15:22:56.428Z,67.20
2019-06-20T15:25:26.158Z,69.80
2019-06-20T15:27:57.281Z,74.40
2019-06-20T15:30:26.864Z,76.70
2019-06-20T15:33:07.466Z,80.50
2019-06-20T15:35:27.470Z,80.90
2019-06-20T15:37:57.681Z,83.80
2019-06-20T15:40:27.290Z,86.10
2019-06-20T15:42:59.008Z,88.20
2019-06-20T15:45:29.376Z,90.60
2019-06-20T15:47:58.715Z,91.10
2019-06-20T15:50:28.016Z,93.00
2019-06-20T15:52:57.414Z,93.00
2019-06-20T15:55:26.703Z,94.50
2019-06-20T15:57:57.950Z,93.60
2019-06-20T16:00:27.252Z,95.30
2019-06-20T16:03:08.846Z,93.40
2019-06-20T16:05:27.615Z,95.80
2019-06-20T16:07:57.811Z,95.60
2019-06-20T16:10:27.151Z,94.90
2019-06-20T16:12:56.499Z,95.80
2019-06-20T16:15:25.861Z,95.70
2019-06-20T16:17:56.071Z,94.40
2019-06-20T16:20:25.366Z,95.00
2019-06-20T16:22:54.658Z,95.40
2019-06-20T16:25:23.958Z,96.60
2019-06-20T16:27:53.340Z,95.50
2019-06-20T16:30:24.170Z,94.00
2019-06-20T16:32:53.485Z,95.30
2019-06-20T16:35:22.846Z,97.00
2019-06-20T16:37:52.161Z,94.30
2019-06-20T16:40:39.398Z,97.70
2019-06-20T16:43:08.700Z,97.30
2019-06-20T16:45:38.001Z,95.10
2019-06-20T16:48:07.309Z,95.20
2019-06-20T16:50:36.617Z,95.00
2019-06-20T16:53:06.094Z,95.70
2019-06-20T16:55:35.454Z,97.20
2019-06-20T16:58:05.489Z,96.40
2019-06-20T17:00:35.021Z,95.80
2019-06-20T17:03:05.520Z,95.70
2019-06-20T17:05:35.001Z,97.30
2019-06-20T17:08:05.140Z,96.50
2019-06-20T17:10:34.442Z,95.90
2019-06-20T17:13:03.837Z,95.90
2019-06-20T17:15:33.120Z,94.80
2019-06-20T17:18:02.431Z,96.20
2019-06-20T17:20:31.734Z,96.00
2019-06-20T17:23:02.021Z,95.90
2019-06-20T17:25:31.362Z,96.80
2019-06-20T17:28:00.706Z,95.80
2019-06-20T17:30:30.643Z,95.20
2019-06-20T17:32:59.944Z,95.90
2019-06-20T17:35:29.302Z,95.60
2019-06-20T17:37:58.635Z,94.00
2019-06-20T17:40:28.264Z,94.10
2019-06-20T17:42:57.561Z,95.30
2019-06-20T17:45:27.126Z,95.10
2019-06-20T17:47:56.415Z,95.50
2019-06-20T17:50:26.067Z,95.00
2019-06-20T17:52:55.528Z,94.90
2019-06-20T17:55:24.903Z,95.40
2019-06-20T17:57:54.203Z,93.90
2019-06-20T18:00:25.314Z,95.50
2019-06-20T18:02:54.664Z,94.60
2019-06-20T18:05:24.144Z,94.70
2019-06-20T18:07:53.456Z,94.70
2019-06-20T18:10:23.303Z,95.60
2019-06-20T18:12:52.644Z,94.60
2019-06-20T18:15:25.663Z,94.50
2019-06-20T18:17:55.011Z,95.10
2019-06-20T18:20:26.345Z,95.20
2019-06-20T18:22:55.714Z,94.30
2019-06-20T18:25:25.030Z,94.80
2019-06-20T18:27:54.376Z,95.00
2019-06-20T18:30:32.434Z,95.40
2019-06-20T18:33:01.730Z,94.90
2019-06-20T18:35:31.027Z,94.70
2019-06-20T18:38:00.332Z,94.40
2019-06-20T18:40:29.649Z,95.10
2019-06-20T18:42:58.958Z,95.80
2019-06-20T18:45:28.353Z,95.00
2019-06-20T18:47:57.670Z,95.80
2019-06-20T18:50:26.979Z,95.10
2019-06-20T18:52:56.280Z,95.40
2019-06-20T18:55:25.613Z,96.10
2019-06-20T18:57:54.910Z,95.60
2019-06-20T19:00:34.110Z,95.70
2019-06-20T19:02:55.776Z,95.50
2019-06-20T19:05:25.117Z,95.50
2019-06-20T19:07:54.406Z,95.50
2019-06-20T19:10:24.248Z,95.60
2019-06-20T19:12:53.607Z,95.80
2019-06-20T19:15:24.453Z,95.80
2019-06-20T19:17:53.767Z,96.30
2019-06-20T19:20:24.653Z,95.70
2019-06-20T19:22:53.952Z,96.60
2019-06-20T19:25:23.249Z,96.10
2019-06-20T19:27:52.548Z,96.40
2019-06-20T19:30:24.934Z,96.20
2019-06-20T19:32:54.220Z,96.30
2019-06-20T19:35:23.542Z,96.20
2019-06-20T19:37:52.897Z,96.30
2019-06-20T19:40:25.289Z,96.70
2019-06-20T19:42:54.613Z,96.30
2019-06-20T19:45:24.095Z,96.70
2019-06-20T19:47:53.381Z,96.80
2019-06-20T19:50:22.751Z,96.90
2019-06-20T19:52:52.059Z,97.20
2019-06-20T19:55:21.467Z,97.00
2019-06-20T19:57:50.757Z,97.10
2019-06-20T20:00:20.594Z,96.80
2019-06-20T20:02:50.046Z,97.00
2019-06-20T20:05:20.106Z,96.90
2019-06-20T20:07:50.837Z,97.20
2019-06-20T20:10:46.768Z,97.60
2019-06-20T20:13:17.052Z,97.50
2019-06-20T20:15:47.205Z,97.60
2019-06-20T20:18:16.673Z,97.70
2019-06-20T20:20:47.904Z,97.20
2019-06-20T20:23:17.426Z,97.90
2019-06-20T20:25:46.884Z,97.00
2019-06-20T20:28:16.374Z,97.00
2019-06-20T20:30:45.753Z,97.00
2019-06-20T20:33:15.062Z,97.30
2019-06-20T20:35:44.440Z,97.60
2019-06-20T20:38:13.750Z,97.70
2019-06-20T20:40:43.388Z,97.40
2019-06-20T20:43:14.599Z,97.20
2019-06-20T20:45:44.007Z,97.50
2019-06-20T20:48:13.320Z,97.60
2019-06-20T20:50:43.065Z,98.40
2019-06-20T20:53:12.388Z,98.10
2019-06-20T20:55:41.711Z,98.30
2019-06-20T20:58:11.085Z,98.10
2019-06-20T21:00:46.435Z,97.80
2019-06-20T21:03:15.755Z,97.60
2019-06-20T21:05:51.337Z,97.80
2019-06-20T21:08:16.142Z,97.90
2019-06-20T21:10:46.131Z,97.80
2019-06-20T21:13:15.452Z,97.90
2019-06-20T21:15:44.800Z,98.00
2019-06-20T21:18:14.185Z,97.90
2019-06-20T21:20:43.659Z,97.70
2019-06-20T21:23:12.979Z,97.80
2019-06-20T21:25:42.295Z,97.70
2019-06-20T21:28:11.609Z,97.90
2019-06-20T21:30:40.920Z,97.90
2019-06-20T21:33:10.239Z,97.70
2019-06-20T21:35:39.714Z,97.70
2019-06-20T21:38:09.035Z,97.60
2019-06-20T21:40:38.343Z,97.80
2019-06-20T21:43:07.673Z,97.90
2019-06-20T21:45:36.975Z,97.40
2019-06-20T21:48:06.322Z,97.60
2019-06-20T21:50:35.753Z,97.60
2019-06-20T21:53:05.090Z,97.60
2019-06-20T21:55:34.475Z,97.80
2019-06-20T21:58:03.865Z,97.70
2019-06-20T22:00:37.945Z,98.00
2019-06-20T22:03:10.325Z,98.00
2019-06-20T22:05:41.238Z,98.00
2019-06-20T22:08:10.818Z,98.10
2019-06-20T22:10:40.126Z,98.10
2019-06-20T22:13:09.433Z,98.10
2019-06-20T22:15:39.899Z,98.40
2019-06-20T22:18:09.271Z,98.30
2019-06-20T22:20:38.594Z,98.20
2019-06-20T22:23:08.087Z,98.20
2019-06-20T22:25:37.482Z,98.60
2019-06-20T22:28:07.040Z,98.40
2019-06-20T22:30:48.381Z,97.80
2019-06-20T22:33:17.703Z,97.80
2019-06-20T22:35:47.043Z,97.50
2019-06-20T22:38:16.414Z,97.70
2019-06-20T22:40:47.281Z,97.50
2019-06-20T22:43:16.666Z,97.70
2019-06-20T22:45:46.058Z,97.70
2019-06-20T22:48:15.570Z,97.70
2019-06-20T22:50:45.175Z,97.80
2019-06-20T22:53:14.554Z,97.90
2019-06-20T22:55:43.867Z,98.10
2019-06-20T22:58:13.189Z,98.30
2019-06-20T23:00:42.889Z,97.80
2019-06-20T23:03:12.287Z,98.00
2019-06-20T23:05:41.590Z,98.00
2019-06-20T23:08:10.906Z,97.70
2019-06-20T23:10:40.281Z,97.90
2019-06-20T23:13:09.603Z,97.30
2019-06-20T23:15:39.067Z,97.50
2019-06-20T23:18:09.607Z,97.80
2019-06-20T23:20:38.987Z,97.70
2019-06-20T23:23:09.463Z,97.80
2019-06-20T23:25:40.415Z,97.70
2019-06-20T23:28:10.899Z,97.70
2019-06-20T23:30:40.220Z,97.70
2019-06-20T23:33:09.536Z,97.70
2019-06-20T23:35:38.865Z,97.70
2019-06-20T23:38:08.165Z,97.80
2019-06-20T23:40:37.517Z,97.70
2019-06-20T23:43:06.963Z,97.80
2019-06-20T23:45:36.274Z,98.00
2019-06-20T23:48:05.585Z,98.10
2019-06-20T23:50:34.910Z,97.70
2019-06-20T23:53:06.096Z,97.70
2019-06-20T23:55:35.426Z,97.70
2019-06-20T23:58:04.851Z,97.90
